sensor_id;sensor_type;location;lat;lon;timestamp;pressure;altitude;pressure_sealevel;temperature;humidity
48089;BME280;33867;50.314;7.802;2023-06-10T00:02:08;100150.66;;;16.53;nan
48089;BME280;33867;50.314;7.802;2023-06-10T00:05:27;100153.56;;;16.52;nan
48089;BME280;33867;50.314;7.802;2023-06-10T00:08:48;100150.59;;;16.47;nan
48089;BME280;33867;50.314;7.802;2023-06-10T00:12:08;100148.91;;;16.46;nan
48089;BME280;33867;50.314;7.802;2023-06-10T00:15:28;100155.06;;;16.40;nan
48089;BME280;33867;50.314;7.802;2023-06-10T00:18:48;100145.31;;;16.30;nan
48089;BME280;33867;50.314;7.802;2023-06-10T00:22:10;100147.50;;;16.35;nan
48089;BME280;33867;50.314;7.802;2023-06-10T00:25:29;100152.09;;;16.34;nan
48089;BME280;33867;50.314;7.802;2023-06-10T00:28:48;100146.53;;;16.28;nan
48089;BME280;33867;50.314;7.802;2023-06-10T00:32:08;100150.72;;;16.16;nan
48089;BME280;33867;50.314;7.802;2023-06-10T00:35:27;100149.03;;;16.15;nan
48089;BME280;33867;50.314;7.802;2023-06-10T00:38:47;100154.09;;;16.18;nan
48089;BME280;33867;50.314;7.802;2023-06-10T00:42:07;100153.81;;;16.13;nan
48089;BME280;33867;50.314;7.802;2023-06-10T00:45:26;100152.22;;;16.03;nan
48089;BME280;33867;50.314;7.802;2023-06-10T00:48:45;100155.19;;;15.94;nan
48089;BME280;33867;50.314;7.802;2023-06-10T00:52:06;100156.38;;;15.91;nan
48089;BME280;33867;50.314;7.802;2023-06-10T00:55:26;100157.41;;;15.90;nan
48089;BME280;33867;50.314;7.802;2023-06-10T00:58:47;100159.28;;;15.90;nan
48089;BME280;33867;50.314;7.802;2023-06-10T01:02:07;100158.78;;;15.86;nan
48089;BME280;33867;50.314;7.802;2023-06-10T01:05:26;100162.91;;;15.82;nan
48089;BME280;33867;50.314;7.802;2023-06-10T01:08:56;100159.06;;;15.76;nan
48089;BME280;33867;50.314;7.802;2023-06-10T01:12:31;100161.47;;;15.71;nan
48089;BME280;33867;50.314;7.802;2023-06-10T01:15:52;100162.69;;;15.69;nan
48089;BME280;33867;50.314;7.802;2023-06-10T01:19:11;100167.31;;;15.60;nan
48089;BME280;33867;50.314;7.802;2023-06-10T01:22:32;100168.69;;;15.56;nan
48089;BME280;33867;50.314;7.802;2023-06-10T01:25:57;100158.31;;;15.60;nan
48089;BME280;33867;50.314;7.802;2023-06-10T01:29:22;100165.59;;;15.59;nan
48089;BME280;33867;50.314;7.802;2023-06-10T01:32:48;100166.84;;;15.48;nan
48089;BME280;33867;50.314;7.802;2023-06-10T01:36:09;100166.38;;;15.45;nan
48089;BME280;33867;50.314;7.802;2023-06-10T01:39:29;100162.16;;;15.42;nan
48089;BME280;33867;50.314;7.802;2023-06-10T01:42:49;100164.56;;;15.37;nan
48089;BME280;33867;50.314;7.802;2023-06-10T01:46:08;100171.78;;;15.22;nan
48089;BME280;33867;50.314;7.802;2023-06-10T01:49:28;100167.75;;;15.18;nan
48089;BME280;33867;50.314;7.802;2023-06-10T01:52:47;100158.41;;;15.20;nan
48089;BME280;33867;50.314;7.802;2023-06-10T01:56:12;100168.41;;;15.20;nan
48089;BME280;33867;50.314;7.802;2023-06-10T01:59:36;100166.56;;;15.12;nan
48089;BME280;33867;50.314;7.802;2023-06-10T02:02:56;100172.16;;;15.11;nan
48089;BME280;33867;50.314;7.802;2023-06-10T02:06:15;100176.75;;;15.10;nan
48089;BME280;33867;50.314;7.802;2023-06-10T02:09:34;100172.19;;;15.03;nan
48089;BME280;33867;50.314;7.802;2023-06-10T02:12:54;100170.50;;;15.02;nan
48089;BME280;33867;50.314;7.802;2023-06-10T02:16:13;100173.28;;;14.94;nan
48089;BME280;33867;50.314;7.802;2023-06-10T02:19:35;100172.78;;;14.90;nan
48089;BME280;33867;50.314;7.802;2023-06-10T02:22:55;100180.41;;;14.86;nan
48089;BME280;33867;50.314;7.802;2023-06-10T02:26:14;100174.53;;;14.75;nan
48089;BME280;33867;50.314;7.802;2023-06-10T02:29:34;100174.69;;;14.81;nan
48089;BME280;33867;50.314;7.802;2023-06-10T02:32:54;100182.47;;;14.76;nan
48089;BME280;33867;50.314;7.802;2023-06-10T02:36:14;100173.19;;;14.71;nan
48089;BME280;33867;50.314;7.802;2023-06-10T02:39:34;100184.53;;;14.66;nan
48089;BME280;33867;50.314;7.802;2023-06-10T02:42:55;100197.78;;;14.61;nan
48089;BME280;33867;50.314;7.802;2023-06-10T02:46:14;100198.63;;;14.53;nan
48089;BME280;33867;50.314;7.802;2023-06-10T02:49:34;100193.75;;;14.57;nan
48089;BME280;33867;50.314;7.802;2023-06-10T02:52:54;100191.03;;;14.49;nan
48089;BME280;33867;50.314;7.802;2023-06-10T02:56:16;100194.78;;;14.48;nan
48089;BME280;33867;50.314;7.802;2023-06-10T02:59:35;100196.47;;;14.49;nan
48089;BME280;33867;50.314;7.802;2023-06-10T03:02:55;100190.66;;;14.44;nan
48089;BME280;33867;50.314;7.802;2023-06-10T03:06:19;100190.34;;;14.39;nan
48089;BME280;33867;50.314;7.802;2023-06-10T03:09:38;100190.34;;;14.39;nan
48089;BME280;33867;50.314;7.802;2023-06-10T03:12:59;100190.34;;;14.39;nan
48089;BME280;33867;50.314;7.802;2023-06-10T03:16:19;100196.97;;;14.36;nan
48089;BME280;33867;50.314;7.802;2023-06-10T03:19:39;100193.59;;;14.34;nan
48089;BME280;33867;50.314;7.802;2023-06-10T03:22:58;100188.50;;;14.31;nan
48089;BME280;33867;50.314;7.802;2023-06-10T03:26:17;100200.16;;;14.31;nan
48089;BME280;33867;50.314;7.802;2023-06-10T03:29:39;100198.34;;;14.24;nan
48089;BME280;33867;50.314;7.802;2023-06-10T03:32:59;100201.53;;;14.27;nan
48089;BME280;33867;50.314;7.802;2023-06-10T03:36:20;100202.38;;;14.28;nan
48089;BME280;33867;50.314;7.802;2023-06-10T03:39:40;100209.66;;;14.27;nan
48089;BME280;33867;50.314;7.802;2023-06-10T03:43:00;100211.69;;;14.25;nan
48089;BME280;33867;50.314;7.802;2023-06-10T03:46:19;100199.84;;;14.26;nan
48089;BME280;33867;50.314;7.802;2023-06-10T03:49:38;100206.78;;;14.29;nan
48089;BME280;33867;50.314;7.802;2023-06-10T03:52:59;100210.00;;;14.24;nan
48089;BME280;33867;50.314;7.802;2023-06-10T03:56:19;100207.97;;;14.34;nan
48089;BME280;33867;50.314;7.802;2023-06-10T03:59:38;100213.41;;;14.34;nan
48089;BME280;33867;50.314;7.802;2023-06-10T04:02:58;100210.69;;;14.34;nan
48089;BME280;33867;50.314;7.802;2023-06-10T04:06:29;100213.56;;;14.33;nan
48089;BME280;33867;50.314;7.802;2023-06-10T04:09:48;100205.94;;;14.37;nan
48089;BME280;33867;50.314;7.802;2023-06-10T04:13:07;100212.03;;;14.39;nan
48089;BME280;33867;50.314;7.802;2023-06-10T04:16:33;100208.66;;;14.37;nan
48089;BME280;33867;50.314;7.802;2023-06-10T04:19:53;100214.72;;;14.39;nan
48089;BME280;33867;50.314;7.802;2023-06-10T04:23:14;100219.50;;;14.45;nan
48089;BME280;33867;50.314;7.802;2023-06-10T04:26:35;100221.34;;;14.44;nan
48089;BME280;33867;50.314;7.802;2023-06-10T04:29:56;100221.50;;;14.51;nan
48089;BME280;33867;50.314;7.802;2023-06-10T04:33:15;100232.16;;;14.52;nan
48089;BME280;33867;50.314;7.802;2023-06-10T04:36:35;100233.69;;;14.55;nan
48089;BME280;33867;50.314;7.802;2023-06-10T04:39:54;100236.75;;;14.60;nan
48089;BME280;33867;50.314;7.802;2023-06-10T04:43:13;100238.44;;;14.61;nan
48089;BME280;33867;50.314;7.802;2023-06-10T04:46:32;100227.72;;;14.68;nan
48089;BME280;33867;50.314;7.802;2023-06-10T04:49:52;100226.88;;;14.67;nan
48089;BME280;33867;50.314;7.802;2023-06-10T04:53:11;100230.91;;;14.79;nan
48089;BME280;33867;50.314;7.802;2023-06-10T04:56:34;100233.31;;;14.82;nan
48089;BME280;33867;50.314;7.802;2023-06-10T04:59:53;100236.50;;;14.86;nan
48089;BME280;33867;50.314;7.802;2023-06-10T05:03:12;100231.75;;;14.80;nan
48089;BME280;33867;50.314;7.802;2023-06-10T05:06:31;100231.25;;;14.93;nan
48089;BME280;33867;50.314;7.802;2023-06-10T05:09:50;100233.59;;;14.96;nan
48089;BME280;33867;50.314;7.802;2023-06-10T05:13:09;100229.13;;;15.03;nan
48089;BME280;33867;50.314;7.802;2023-06-10T05:16:28;100238.94;;;15.12;nan
48089;BME280;33867;50.314;7.802;2023-06-10T05:19:47;100242.69;;;15.11;nan
48089;BME280;33867;50.314;7.802;2023-06-10T05:23:07;100241.47;;;15.13;nan
48089;BME280;33867;50.314;7.802;2023-06-10T05:26:26;100245.66;;;15.24;nan
48089;BME280;33867;50.314;7.802;2023-06-10T05:29:45;100236.50;;;15.25;nan
48089;BME280;33867;50.314;7.802;2023-06-10T05:33:04;100237.16;;;15.27;nan
48089;BME280;33867;50.314;7.802;2023-06-10T05:36:24;100230.03;;;15.34;nan
48089;BME280;33867;50.314;7.802;2023-06-10T05:39:46;100228.94;;;15.52;nan
48089;BME280;33867;50.314;7.802;2023-06-10T05:43:05;100230.81;;;15.74;nan
48089;BME280;33867;50.314;7.802;2023-06-10T05:46:24;100224.06;;;17.63;nan
48089;BME280;33867;50.314;7.802;2023-06-10T05:49:43;100220.03;;;21.40;nan
48089;BME280;33867;50.314;7.802;2023-06-10T05:53:05;100211.38;;;23.61;nan
48089;BME280;33867;50.314;7.802;2023-06-10T05:56:25;100211.97;;;25.17;nan
48089;BME280;33867;50.314;7.802;2023-06-10T05:59:44;100213.94;;;26.47;nan
48089;BME280;33867;50.314;7.802;2023-06-10T06:03:06;100215.13;;;27.06;nan
48089;BME280;33867;50.314;7.802;2023-06-10T06:06:26;100204.16;;;28.09;nan
48089;BME280;33867;50.314;7.802;2023-06-10T06:09:46;100206.88;;;28.68;nan
48089;BME280;33867;50.314;7.802;2023-06-10T06:13:05;100199.00;;;29.45;nan
48089;BME280;33867;50.314;7.802;2023-06-10T06:16:25;100196.44;;;30.21;nan
48089;BME280;33867;50.314;7.802;2023-06-10T06:19:44;100200.31;;;30.81;nan
48089;BME280;33867;50.314;7.802;2023-06-10T06:23:04;100201.56;;;31.29;nan
48089;BME280;33867;50.314;7.802;2023-06-10T06:26:22;100189.53;;;31.93;nan
48089;BME280;33867;50.314;7.802;2023-06-10T06:29:41;62132.72;;;-144.99;100.00
48089;BME280;33867;50.314;7.802;2023-06-10T06:33:01;62132.72;;;-144.99;100.00
48089;BME280;33867;50.314;7.802;2023-06-10T06:36:20;100189.53;;;31.93;nan
48089;BME280;33867;50.314;7.802;2023-06-10T06:39:40;100203.53;;;33.38;nan
48089;BME280;33867;50.314;7.802;2023-06-10T06:42:59;100196.66;;;33.92;nan
48089;BME280;33867;50.314;7.802;2023-06-10T06:46:37;100209.59;;;33.88;nan
48089;BME280;33867;50.314;7.802;2023-06-10T06:49:56;62132.72;;;-144.99;100.00
48089;BME280;33867;50.314;7.802;2023-06-10T06:53:15;100209.59;;;33.88;nan
48089;BME280;33867;50.314;7.802;2023-06-10T06:56:34;100207.78;;;32.83;nan
48089;BME280;33867;50.314;7.802;2023-06-10T06:59:53;100210.44;;;31.91;nan
48089;BME280;33867;50.314;7.802;2023-06-10T07:03:12;100204.75;;;31.62;nan
48089;BME280;33867;50.314;7.802;2023-06-10T07:06:31;100205.47;;;31.28;nan
48089;BME280;33867;50.314;7.802;2023-06-10T07:09:52;100206.28;;;31.34;nan
48089;BME280;33867;50.314;7.802;2023-06-10T07:13:10;100204.75;;;31.62;nan
48089;BME280;33867;50.314;7.802;2023-06-10T07:16:30;100201.97;;;31.62;nan
48089;BME280;33867;50.314;7.802;2023-06-10T07:19:49;100204.41;;;31.04;nan
48089;BME280;33867;50.314;7.802;2023-06-10T07:23:10;100215.03;;;30.51;nan
48089;BME280;33867;50.314;7.802;2023-06-10T07:26:29;100213.91;;;30.88;nan
48089;BME280;33867;50.314;7.802;2023-06-10T07:29:48;100216.97;;;30.40;nan
48089;BME280;33867;50.314;7.802;2023-06-10T07:33:07;100212.53;;;30.49;nan
48089;BME280;33867;50.314;7.802;2023-06-10T07:36:26;100215.84;;;30.87;nan
48089;BME280;33867;50.314;7.802;2023-06-10T07:39:47;100220.63;;;31.61;nan
48089;BME280;33867;50.314;7.802;2023-06-10T07:43:06;100212.75;;;31.04;nan
48089;BME280;33867;50.314;7.802;2023-06-10T07:46:25;100217.53;;;30.47;nan
48089;BME280;33867;50.314;7.802;2023-06-10T07:49:45;100217.28;;;30.44;nan
48089;BME280;33867;50.314;7.802;2023-06-10T07:53:05;100203.53;;;31.13;nan
48089;BME280;33867;50.314;7.802;2023-06-10T07:56:24;100217.72;;;31.17;nan
48089;BME280;33867;50.314;7.802;2023-06-10T07:59:44;100209.38;;;31.17;nan
48089;BME280;33867;50.314;7.802;2023-06-10T08:03:03;100217.44;;;31.29;nan
48089;BME280;33867;50.314;7.802;2023-06-10T08:06:22;100208.06;;;30.53;nan
48089;BME280;33867;50.314;7.802;2023-06-10T08:09:41;100211.03;;;31.23;nan
48089;BME280;33867;50.314;7.802;2023-06-10T08:13:00;100194.31;;;32.27;nan
48089;BME280;33867;50.314;7.802;2023-06-10T08:16:19;100206.28;;;31.34;nan
48089;BME280;33867;50.314;7.802;2023-06-10T08:19:39;100208.19;;;31.93;nan
48089;BME280;33867;50.314;7.802;2023-06-10T08:22:58;100203.75;;;31.92;nan
48089;BME280;33867;50.314;7.802;2023-06-10T08:26:17;100198.25;;;31.82;nan
48089;BME280;33867;50.314;7.802;2023-06-10T08:29:36;100210.78;;;31.14;nan
48089;BME280;33867;50.314;7.802;2023-06-10T08:32:55;100199.84;;;31.98;nan
48089;BME280;33867;50.314;7.802;2023-06-10T08:36:14;100202.75;;;32.17;nan
48089;BME280;33867;50.314;7.802;2023-06-10T08:39:33;100194.88;;;31.90;nan
48089;BME280;33867;50.314;7.802;2023-06-10T08:43:06;100200.25;;;32.83;nan
48089;BME280;33867;50.314;7.802;2023-06-10T08:46:28;100191.56;;;33.57;nan
48089;BME280;33867;50.314;7.802;2023-06-10T08:49:50;100190.72;;;33.56;nan
48089;BME280;33867;50.314;7.802;2023-06-10T08:53:13;100198.81;;;33.10;nan
48089;BME280;33867;50.314;7.802;2023-06-10T08:56:39;100191.28;;;32.86;nan
48089;BME280;33867;50.314;7.802;2023-06-10T08:59:58;100197.41;;;33.12;nan
48089;BME280;33867;50.314;7.802;2023-06-10T09:03:17;100187.03;;;33.42;nan
48089;BME280;33867;50.314;7.802;2023-06-10T09:06:37;100191.88;;;33.31;nan
48089;BME280;33867;50.314;7.802;2023-06-10T09:09:57;100185.22;;;33.51;nan
48089;BME280;33867;50.314;7.802;2023-06-10T09:13:16;100190.94;;;34.68;nan
48089;BME280;33867;50.314;7.802;2023-06-10T09:16:38;100182.69;;;33.92;nan
48089;BME280;33867;50.314;7.802;2023-06-10T09:19:58;100178.25;;;32.82;nan
48089;BME280;33867;50.314;7.802;2023-06-10T09:23:18;100173.72;;;33.10;nan
48089;BME280;33867;50.314;7.802;2023-06-10T09:26:37;100158.38;;;33.55;nan
48089;BME280;33867;50.314;7.802;2023-06-10T09:29:58;100165.63;;;34.45;nan
48089;BME280;33867;50.314;7.802;2023-06-10T09:33:17;100161.28;;;33.88;nan
48089;BME280;33867;50.314;7.802;2023-06-10T09:36:37;100158.00;;;34.65;nan
48089;BME280;33867;50.314;7.802;2023-06-10T09:40:07;100153.66;;;33.51;nan
48089;BME280;33867;50.314;7.802;2023-06-10T09:43:41;100163.50;;;34.05;nan
48089;BME280;33867;50.314;7.802;2023-06-10T09:47:01;100156.34;;;34.77;nan
48089;BME280;33867;50.314;7.802;2023-06-10T09:50:21;100154.88;;;35.98;nan
48089;BME280;33867;50.314;7.802;2023-06-10T09:53:40;100160.63;;;35.02;nan
48089;BME280;33867;50.314;7.802;2023-06-10T09:57:07;100158.50;;;35.99;nan
48089;BME280;33867;50.314;7.802;2023-06-10T10:00:27;100154.53;;;35.78;nan
48089;BME280;33867;50.314;7.802;2023-06-10T10:03:49;100148.13;;;35.63;nan
48089;BME280;33867;50.314;7.802;2023-06-10T10:07:09;100146.16;;;36.22;nan
48089;BME280;33867;50.314;7.802;2023-06-10T10:10:28;100144.69;;;35.03;nan
48089;BME280;33867;50.314;7.802;2023-06-10T10:13:49;100143.31;;;35.55;nan
48089;BME280;33867;50.314;7.802;2023-06-10T10:17:10;100137.75;;;35.78;nan
48089;BME280;33867;50.314;7.802;2023-06-10T10:20:34;100139.59;;;35.32;nan
48089;BME280;33867;50.314;7.802;2023-06-10T10:24:26;100138.31;;;33.91;nan
48089;BME280;33867;50.314;7.802;2023-06-10T10:27:55;100146.84;;;35.47;nan
48089;BME280;33867;50.314;7.802;2023-06-10T10:31:16;100137.47;;;35.65;nan
48089;BME280;33867;50.314;7.802;2023-06-10T10:35:03;100141.75;;;36.52;nan
48089;BME280;33867;50.314;7.802;2023-06-10T10:38:27;100145.56;;;36.56;nan
48089;BME280;33867;50.314;7.802;2023-06-10T10:41:47;100131.63;;;35.98;nan
48089;BME280;33867;50.314;7.802;2023-06-10T10:45:09;100136.25;;;36.78;nan
48089;BME280;33867;50.314;7.802;2023-06-10T10:48:37;100140.31;;;35.24;nan
48089;BME280;33867;50.314;7.802;2023-06-10T10:52:11;100128.47;;;36.13;nan
48089;BME280;33867;50.314;7.802;2023-06-10T10:55:31;100130.47;;;35.40;nan
48089;BME280;33867;50.314;7.802;2023-06-10T10:59:04;100115.63;;;35.90;nan
48089;BME280;33867;50.314;7.802;2023-06-10T11:02:34;100124.47;;;34.92;nan
48089;BME280;33867;50.314;7.802;2023-06-10T11:06:11;100126.00;;;35.26;nan
48089;BME280;33867;50.314;7.802;2023-06-10T11:09:32;100116.25;;;35.37;nan
48089;BME280;33867;50.314;7.802;2023-06-10T11:12:58;100106.28;;;35.81;nan
48089;BME280;33867;50.314;7.802;2023-06-10T11:16:19;100112.78;;;33.79;nan
48089;BME280;33867;50.314;7.802;2023-06-10T11:19:45;100097.16;;;35.89;nan
48089;BME280;33867;50.314;7.802;2023-06-10T11:26:46;100099.06;;;36.02;nan
48089;BME280;33867;50.314;7.802;2023-06-10T11:33:26;100100.00;;;36.51;nan
48089;BME280;33867;50.314;7.802;2023-06-10T11:36:46;100093.75;;;36.85;nan
48089;BME280;33867;50.314;7.802;2023-06-10T11:40:06;100100.13;;;36.77;nan
48089;BME280;33867;50.314;7.802;2023-06-10T11:43:29;100110.38;;;33.91;nan
48089;BME280;33867;50.314;7.802;2023-06-10T11:46:49;100085.63;;;34.30;nan
48089;BME280;33867;50.314;7.802;2023-06-10T11:50:09;100081.69;;;35.78;nan
48089;BME280;33867;50.314;7.802;2023-06-10T11:53:28;100078.69;;;35.74;nan
48089;BME280;33867;50.314;7.802;2023-06-10T11:56:47;100093.75;;;36.85;nan
48089;BME280;33867;50.314;7.802;2023-06-10T12:00:11;100083.72;;;35.63;nan
48089;BME280;33867;50.314;7.802;2023-06-10T12:03:37;100075.19;;;35.68;nan
48089;BME280;33867;50.314;7.802;2023-06-10T12:06:57;100075.25;;;34.91;nan
48089;BME280;33867;50.314;7.802;2023-06-10T12:10:16;100068.47;;;35.92;nan
48089;BME280;33867;50.314;7.802;2023-06-10T12:13:35;100064.91;;;36.62;nan
48089;BME280;33867;50.314;7.802;2023-06-10T12:16:56;100071.53;;;34.96;nan
48089;BME280;33867;50.314;7.802;2023-06-10T12:20:27;100060.31;;;35.09;nan
48089;BME280;33867;50.314;7.802;2023-06-10T12:24:06;100070.53;;;35.41;nan
48089;BME280;33867;50.314;7.802;2023-06-10T12:27:27;100066.22;;;33.18;nan
48089;BME280;33867;50.314;7.802;2023-06-10T12:30:48;100068.56;;;33.67;nan
48089;BME280;33867;50.314;7.802;2023-06-10T12:34:14;100070.13;;;33.73;nan
48089;BME280;33867;50.314;7.802;2023-06-10T12:37:34;100060.94;;;34.65;nan
48089;BME280;33867;50.314;7.802;2023-06-10T12:41:01;100060.44;;;35.77;nan
48089;BME280;33867;50.314;7.802;2023-06-10T12:44:34;100060.19;;;35.64;nan
48089;BME280;33867;50.314;7.802;2023-06-10T12:51:27;100052.47;;;35.70;nan
48089;BME280;33867;50.314;7.802;2023-06-10T12:54:46;100061.78;;;34.06;nan
48089;BME280;33867;50.314;7.802;2023-06-10T12:58:06;100056.38;;;33.95;nan
48089;BME280;33867;50.314;7.802;2023-06-10T13:01:30;100055.63;;;33.71;nan
48089;BME280;33867;50.314;7.802;2023-06-10T13:05:01;100065.91;;;34.08;nan
48089;BME280;33867;50.314;7.802;2023-06-10T13:08:21;100051.72;;;34.65;nan
48089;BME280;33867;50.314;7.802;2023-06-10T13:11:40;100057.75;;;33.04;nan
48089;BME280;33867;50.314;7.802;2023-06-10T13:15:04;100053.88;;;33.94;nan
48089;BME280;33867;50.314;7.802;2023-06-10T13:18:43;100044.78;;;34.90;nan
48089;BME280;33867;50.314;7.802;2023-06-10T13:22:03;100052.88;;;33.52;nan
48089;BME280;33867;50.314;7.802;2023-06-10T13:25:35;100034.97;;;34.51;nan
48089;BME280;33867;50.314;7.802;2023-06-10T13:28:54;100042.50;;;33.90;nan
48089;BME280;33867;50.314;7.802;2023-06-10T13:32:16;100045.97;;;33.26;nan
48089;BME280;33867;50.314;7.802;2023-06-10T13:35:36;100019.13;;;33.86;nan
48089;BME280;33867;50.314;7.802;2023-06-10T13:39:32;100021.38;;;34.44;nan
48089;BME280;33867;50.314;7.802;2023-06-10T13:42:53;100032.00;;;34.15;nan
48089;BME280;33867;50.314;7.802;2023-06-10T13:46:17;100027.34;;;33.78;nan
48089;BME280;33867;50.314;7.802;2023-06-10T13:49:43;100026.81;;;34.08;nan
48089;BME280;33867;50.314;7.802;2023-06-10T13:53:05;100013.97;;;35.03;nan
48089;BME280;33867;50.314;7.802;2023-06-10T13:56:25;100003.78;;;34.57;nan
48089;BME280;33867;50.314;7.802;2023-06-10T13:59:44;100013.09;;;33.60;nan
48089;BME280;33867;50.314;7.802;2023-06-10T14:03:03;100012.63;;;34.05;nan
48089;BME280;33867;50.314;7.802;2023-06-10T14:06:22;100010.41;;;33.55;nan
48089;BME280;33867;50.314;7.802;2023-06-10T14:09:42;100019.53;;;33.04;nan
48089;BME280;33867;50.314;7.802;2023-06-10T14:13:03;100016.72;;;33.61;nan
48089;BME280;33867;50.314;7.802;2023-06-10T14:16:22;100005.34;;;33.20;nan
48089;BME280;33867;50.314;7.802;2023-06-10T14:19:41;100005.91;;;33.40;nan
48089;BME280;33867;50.314;7.802;2023-06-10T14:23:01;100000.66;;;33.34;nan
48089;BME280;33867;50.314;7.802;2023-06-10T14:26:21;100005.13;;;33.16;nan
48089;BME280;33867;50.314;7.802;2023-06-10T14:29:40;99997.38;;;33.97;nan
48089;BME280;33867;50.314;7.802;2023-06-10T14:32:59;99985.47;;;34.38;nan
48089;BME280;33867;50.314;7.802;2023-06-10T14:36:19;100002.63;;;33.85;nan
48089;BME280;33867;50.314;7.802;2023-06-10T14:39:38;99990.78;;;34.07;nan
48089;BME280;33867;50.314;7.802;2023-06-10T14:42:57;99989.66;;;33.24;nan
48089;BME280;33867;50.314;7.802;2023-06-10T14:46:16;99995.00;;;33.58;nan
48089;BME280;33867;50.314;7.802;2023-06-10T14:49:35;99992.91;;;33.12;nan
48089;BME280;33867;50.314;7.802;2023-06-10T14:52:54;99986.50;;;32.93;nan
48089;BME280;33867;50.314;7.802;2023-06-10T14:56:13;99980.84;;;32.98;nan
48089;BME280;33867;50.314;7.802;2023-06-10T15:00:04;99970.59;;;33.12;nan
48089;BME280;33867;50.314;7.802;2023-06-10T15:03:26;99985.00;;;32.57;nan
48089;BME280;33867;50.314;7.802;2023-06-10T15:06:50;99974.28;;;31.93;nan
48089;BME280;33867;50.314;7.802;2023-06-10T15:10:14;99985.56;;;32.54;nan
48089;BME280;33867;50.314;7.802;2023-06-10T15:13:44;99972.84;;;33.10;nan
48089;BME280;33867;50.314;7.802;2023-06-10T15:17:04;99968.31;;;33.14;nan
48089;BME280;33867;50.314;7.802;2023-06-10T15:20:23;99970.59;;;32.50;nan
48089;BME280;33867;50.314;7.802;2023-06-10T15:24:08;99970.41;;;32.42;nan
48089;BME280;33867;50.314;7.802;2023-06-10T15:27:29;99972.09;;;31.90;nan
48089;BME280;33867;50.314;7.802;2023-06-10T15:30:50;99963.00;;;32.32;nan
48089;BME280;33867;50.314;7.802;2023-06-10T15:34:21;99963.59;;;32.53;nan
48089;BME280;33867;50.314;7.802;2023-06-10T15:37:41;99966.44;;;32.48;nan
48089;BME280;33867;50.314;7.802;2023-06-10T15:41:13;99960.06;;;32.18;nan
48089;BME280;33867;50.314;7.802;2023-06-10T15:44:33;99955.63;;;31.93;nan
48089;BME280;33867;50.314;7.802;2023-06-10T15:47:53;99956.91;;;32.30;nan
48089;BME280;33867;50.314;7.802;2023-06-10T15:51:12;99961.28;;;31.83;nan
48089;BME280;33867;50.314;7.802;2023-06-10T15:54:31;99956.03;;;32.06;nan
48089;BME280;33867;50.314;7.802;2023-06-10T15:57:50;99949.19;;;31.98;nan
48089;BME280;33867;50.314;7.802;2023-06-10T16:01:10;99958.34;;;31.75;nan
48089;BME280;33867;50.314;7.802;2023-06-10T16:04:30;99944.66;;;32.02;nan
48089;BME280;33867;50.314;7.802;2023-06-10T16:07:50;99948.03;;;31.70;nan
48089;BME280;33867;50.314;7.802;2023-06-10T16:11:10;99940.00;;;31.34;nan
48089;BME280;33867;50.314;7.802;2023-06-10T16:14:29;99945.97;;;31.12;nan
48089;BME280;33867;50.314;7.802;2023-06-10T16:17:48;99946.75;;;30.84;nan
48089;BME280;33867;50.314;7.802;2023-06-10T16:21:07;99950.53;;;31.03;nan
48089;BME280;33867;50.314;7.802;2023-06-10T16:24:52;99946.84;;;30.69;nan
48089;BME280;33867;50.314;7.802;2023-06-10T16:28:11;99949.94;;;30.57;nan
48089;BME280;33867;50.314;7.802;2023-06-10T16:31:31;99946.81;;;30.74;nan
48089;BME280;33867;50.314;7.802;2023-06-10T16:34:51;99944.09;;;30.53;nan
48089;BME280;33867;50.314;7.802;2023-06-10T16:38:11;99937.41;;;30.70;nan
48089;BME280;33867;50.314;7.802;2023-06-10T16:41:30;99946.22;;;30.77;nan
48089;BME280;33867;50.314;7.802;2023-06-10T16:44:49;99944.44;;;30.47;nan
48089;BME280;33867;50.314;7.802;2023-06-10T16:48:08;99952.25;;;30.35;nan
48089;BME280;33867;50.314;7.802;2023-06-10T16:51:27;99954.81;;;30.21;nan
48089;BME280;33867;50.314;7.802;2023-06-10T16:54:46;99961.75;;;30.23;nan
48089;BME280;33867;50.314;7.802;2023-06-10T16:58:06;99958.47;;;29.91;nan
48089;BME280;33867;50.314;7.802;2023-06-10T17:01:24;99958.72;;;30.15;nan
48089;BME280;33867;50.314;7.802;2023-06-10T17:04:44;99957.63;;;30.01;nan
48089;BME280;33867;50.314;7.802;2023-06-10T17:08:03;99961.47;;;30.25;nan
48089;BME280;33867;50.314;7.802;2023-06-10T17:11:23;99967.59;;;30.17;nan
48089;BME280;33867;50.314;7.802;2023-06-10T17:14:42;99971.53;;;29.80;nan
48089;BME280;33867;50.314;7.802;2023-06-10T17:18:01;99974.84;;;29.87;nan
48089;BME280;33867;50.314;7.802;2023-06-10T17:21:20;99970.44;;;29.66;nan
48089;BME280;33867;50.314;7.802;2023-06-10T17:24:39;99981.53;;;29.71;nan
48089;BME280;33867;50.314;7.802;2023-06-10T17:28:00;99971.84;;;29.48;nan
48089;BME280;33867;50.314;7.802;2023-06-10T17:31:19;99976.53;;;29.27;nan
48089;BME280;33867;50.314;7.802;2023-06-10T17:34:38;99984.28;;;29.25;nan
48089;BME280;33867;50.314;7.802;2023-06-10T17:37:57;99979.28;;;29.17;nan
48089;BME280;33867;50.314;7.802;2023-06-10T17:41:16;99983.13;;;28.96;nan
48089;BME280;33867;50.314;7.802;2023-06-10T17:44:36;99979.25;;;28.92;nan
48089;BME280;33867;50.314;7.802;2023-06-10T17:47:55;99979.72;;;28.78;nan
48089;BME280;33867;50.314;7.802;2023-06-10T17:51:15;99981.28;;;28.49;nan
48089;BME280;33867;50.314;7.802;2023-06-10T17:54:35;99989.53;;;28.39;nan
48089;BME280;33867;50.314;7.802;2023-06-10T17:57:54;100000.56;;;28.29;nan
48089;BME280;33867;50.314;7.802;2023-06-10T18:01:13;99993.81;;;28.14;nan
48089;BME280;33867;50.314;7.802;2023-06-10T18:04:33;99998.19;;;28.05;nan
48089;BME280;33867;50.314;7.802;2023-06-10T18:07:52;100005.34;;;28.01;nan
48089;BME280;33867;50.314;7.802;2023-06-10T18:11:11;100011.34;;;27.83;nan
48089;BME280;33867;50.314;7.802;2023-06-10T18:14:30;100010.44;;;27.72;nan